(541)-479-2230 [email protected]

City of Grants Pass

Grants Pass AirportĀ 

Current Weather Conditions Medford Airport:
MEDFORD, OR
Metar
KMFR 181153Z AUTO 00000KT 10SM OVC034 M02/M03 A3030 RMK AO2 SLP271 T10171028 10017 21022 51008

11:53 UTC

Wind: 0° 0kt

Visibility: 10 SM

Sky: OVC 3400 ft

Temp: -2 deg C / 28.4 deg F

Dewpoint: -3 deg C / 26.6 deg F

Pressure: 30.3 inHg

TAF
KMFR 181136Z 1812/1912 00000KT P6SM VCFG BKN035 FM182000 32006KT P6SM SCT035